createdAt,value
2017-09-12T00:00:15.313Z,16.00
2017-09-12T00:01:15.278Z,10.50
2017-09-12T00:02:15.251Z,9.40
2017-09-12T00:03:15.218Z,14.80
2017-09-12T00:04:15.188Z,12.50
2017-09-12T00:05:15.157Z,14.00
2017-09-12T00:06:15.126Z,9.20
2017-09-12T00:07:15.096Z,7.80
2017-09-12T00:08:15.065Z,10.70
2017-09-12T00:09:15.034Z,14.90
2017-09-12T00:10:15.004Z,9.30
2017-09-12T00:11:14.980Z,8.20
2017-09-12T00:12:14.941Z,13.20
2017-09-12T00:13:14.914Z,12.80
2017-09-12T00:14:14.880Z,13.80
2017-09-12T00:15:14.851Z,16.50
2017-09-12T00:16:14.819Z,10.10
2017-09-12T00:17:14.787Z,10.20
2017-09-12T00:18:14.754Z,8.80
2017-09-12T00:19:14.726Z,9.20
2017-09-12T00:20:14.695Z,11.40
2017-09-12T00:21:14.664Z,10.10
2017-09-12T00:22:14.634Z,14.60
2017-09-12T00:23:14.602Z,12.10
2017-09-12T00:24:14.582Z,12.50
2017-09-12T00:25:14.541Z,8.70
2017-09-12T00:26:14.507Z,12.70
2017-09-12T00:27:15.052Z,13.00
2017-09-12T00:28:14.449Z,14.60
2017-09-12T00:29:14.419Z,12.30
2017-09-12T00:30:14.388Z,12.40
2017-09-12T00:31:14.361Z,14.00
2017-09-12T00:32:14.328Z,13.30
2017-09-12T00:33:14.297Z,10.50
2017-09-12T00:34:14.265Z,9.50
2017-09-12T00:35:14.233Z,16.40
2017-09-12T00:36:14.207Z,10.50
2017-09-12T00:37:14.172Z,14.60
2017-09-12T00:38:14.305Z,18.60
2017-09-12T00:39:14.111Z,11.80
2017-09-12T00:40:14.079Z,8.20
2017-09-12T00:41:14.050Z,11.00
2017-09-12T00:42:14.020Z,12.50
2017-09-12T00:43:13.989Z,10.80
2017-09-12T00:44:13.957Z,11.80
2017-09-12T00:45:13.927Z,9.10
2017-09-12T00:46:13.896Z,14.90
2017-09-12T00:47:13.865Z,8.40
2017-09-12T00:48:13.841Z,11.50
2017-09-12T00:49:13.804Z,15.10
2017-09-12T00:50:13.776Z,12.20
2017-09-12T00:51:14.653Z,13.30
2017-09-12T00:52:13.712Z,13.60
2017-09-12T00:53:13.682Z,12.70
2017-09-12T00:54:13.651Z,9.60
2017-09-12T00:55:13.620Z,14.40
2017-09-12T00:56:13.590Z,7.80
2017-09-12T00:57:13.558Z,10.20
2017-09-12T00:58:13.528Z,10.50
2017-09-12T00:59:13.498Z,12.80
2017-09-12T01:00:13.467Z,11.80
2017-09-12T01:01:13.435Z,12.30
2017-09-12T01:02:13.406Z,12.00
2017-09-12T01:03:13.376Z,9.90
2017-09-12T01:04:13.344Z,11.70
2017-09-12T01:05:13.314Z,11.30
2017-09-12T01:06:13.283Z,13.30
2017-09-12T01:07:13.251Z,11.80
2017-09-12T01:08:13.222Z,17.30
2017-09-12T01:09:13.191Z,17.80
2017-09-12T01:10:13.162Z,9.80
2017-09-12T01:11:13.134Z,11.00
2017-09-12T01:12:13.098Z,11.40
2017-09-12T01:13:13.071Z,15.80
2017-09-12T01:14:13.039Z,10.30
2017-09-12T01:15:13.010Z,10.90
2017-09-12T01:16:12.977Z,11.80
2017-09-12T01:17:12.947Z,14.30
2017-09-12T01:18:12.917Z,11.90
2017-09-12T01:19:12.888Z,8.60
2017-09-12T01:20:12.857Z,11.70
2017-09-12T01:21:12.825Z,10.70
2017-09-12T01:22:12.797Z,13.00
2017-09-12T01:23:12.767Z,7.40
2017-09-12T01:24:12.824Z,10.90
2017-09-12T01:25:12.706Z,12.90
2017-09-12T01:26:12.675Z,13.40
2017-09-12T01:27:12.644Z,13.80
2017-09-12T01:28:12.612Z,13.00
2017-09-12T01:29:12.589Z,8.70
2017-09-12T01:30:12.553Z,6.80
2017-09-12T01:31:12.521Z,11.80
2017-09-12T01:32:12.491Z,17.20
2017-09-12T01:33:12.460Z,13.10
2017-09-12T01:34:12.431Z,11.80
2017-09-12T01:35:12.401Z,10.80
2017-09-12T01:36:12.369Z,11.60
2017-09-12T01:37:12.339Z,11.10
2017-09-12T01:38:12.308Z,11.50
2017-09-12T01:39:12.280Z,16.40
2017-09-12T01:40:12.247Z,10.80
2017-09-12T01:41:12.218Z,11.10
2017-09-12T01:42:12.188Z,7.90
2017-09-12T01:43:12.157Z,13.00
2017-09-12T01:44:12.126Z,11.30
2017-09-12T01:45:12.319Z,15.80
2017-09-12T01:46:12.066Z,11.10
2017-09-12T01:47:12.036Z,10.10
2017-09-12T01:48:12.005Z,13.00
2017-09-12T01:49:11.974Z,10.70
2017-09-12T01:50:11.943Z,14.00
2017-09-12T01:51:11.914Z,13.70
2017-09-12T01:52:11.882Z,9.50
2017-09-12T01:53:11.853Z,7.40
2017-09-12T01:54:11.823Z,14.20
2017-09-12T01:55:11.793Z,11.30
2017-09-12T01:56:11.762Z,8.60
2017-09-12T01:57:11.732Z,10.90
2017-09-12T01:58:11.701Z,13.70
2017-09-12T01:59:11.671Z,13.80
2017-09-12T02:00:11.640Z,11.10
2017-09-12T02:01:11.610Z,10.60
2017-09-12T02:02:11.579Z,12.80
2017-09-12T02:03:11.549Z,14.80
2017-09-12T02:04:11.519Z,12.50
2017-09-12T02:05:11.488Z,12.20
2017-09-12T02:06:11.458Z,10.60
2017-09-12T02:07:11.429Z,11.40
2017-09-12T02:08:11.396Z,9.20
2017-09-12T02:09:11.366Z,11.20
2017-09-12T02:10:11.337Z,10.40
2017-09-12T02:11:11.307Z,11.20
2017-09-12T02:12:11.275Z,12.80
2017-09-12T02:13:11.245Z,13.10
2017-09-12T02:14:11.214Z,12.70
2017-09-12T02:15:11.181Z,9.80
2017-09-12T02:16:11.152Z,10.20
2017-09-12T02:17:11.121Z,12.20
2017-09-12T02:18:11.109Z,9.80
2017-09-12T02:19:11.062Z,15.80
2017-09-12T02:20:11.030Z,16.90
2017-09-12T02:21:11.000Z,11.90
2017-09-12T02:22:10.970Z,14.40
2017-09-12T02:23:10.940Z,11.30
2017-09-12T02:24:10.909Z,16.10
2017-09-12T02:25:10.896Z,15.20
2017-09-12T02:26:10.849Z,13.20
2017-09-12T02:27:10.815Z,15.60
2017-09-12T02:28:10.784Z,11.70
2017-09-12T02:29:10.754Z,14.60
2017-09-12T02:30:10.731Z,14.80
2017-09-12T02:31:10.693Z,14.00
2017-09-12T02:32:10.659Z,11.50
2017-09-12T02:33:10.630Z,15.40
2017-09-12T02:34:10.598Z,14.00
2017-09-12T02:35:10.567Z,18.10
2017-09-12T02:36:10.538Z,13.80
2017-09-12T02:37:10.505Z,13.80
2017-09-12T02:38:10.473Z,13.60
2017-09-12T02:39:10.445Z,19.50
2017-09-12T02:40:10.411Z,12.10
2017-09-12T02:41:10.379Z,14.70
2017-09-12T02:42:10.349Z,17.30
2017-09-12T02:43:10.321Z,15.70
2017-09-12T02:44:10.284Z,13.30
2017-09-12T02:45:10.253Z,13.50
2017-09-12T02:46:10.223Z,11.90
2017-09-12T02:47:10.189Z,14.00
2017-09-12T02:48:10.158Z,10.00
2017-09-12T02:49:10.129Z,12.50
2017-09-12T02:50:10.093Z,10.70
2017-09-12T02:51:10.063Z,13.80
2017-09-12T02:52:10.034Z,13.40
2017-09-12T02:53:10.003Z,14.70
2017-09-12T02:54:09.969Z,17.40
2017-09-12T02:55:09.934Z,15.60
2017-09-12T02:56:09.904Z,13.30
2017-09-12T02:57:09.871Z,13.40
2017-09-12T02:58:09.838Z,14.30
2017-09-12T02:59:09.937Z,13.10
2017-09-12T03:00:09.775Z,12.40
2017-09-12T03:01:09.746Z,17.40
2017-09-12T03:02:09.711Z,9.50
2017-09-12T03:03:09.679Z,11.50
2017-09-12T03:04:09.646Z,12.60
2017-09-12T03:05:09.615Z,14.50
2017-09-12T03:06:09.583Z,13.40
2017-09-12T03:07:09.550Z,8.40
2017-09-12T03:08:09.516Z,15.60
2017-09-12T03:09:09.486Z,18.00
2017-09-12T03:10:09.455Z,9.30
2017-09-12T03:11:09.424Z,9.90
2017-09-12T03:12:09.928Z,9.70
2017-09-12T03:13:09.359Z,11.60
2017-09-12T03:14:09.327Z,13.70
2017-09-12T03:15:09.294Z,10.60
2017-09-12T03:16:09.261Z,13.60
2017-09-12T03:17:09.229Z,12.20
2017-09-12T03:18:09.199Z,15.30
2017-09-12T03:19:09.205Z,12.30
2017-09-12T03:20:09.139Z,13.90
2017-09-12T03:21:09.102Z,16.80
2017-09-12T03:22:09.071Z,13.70
2017-09-12T03:23:09.038Z,13.70
2017-09-12T03:24:09.005Z,14.20
2017-09-12T03:25:08.973Z,16.20
2017-09-12T03:26:08.944Z,12.40
2017-09-12T03:27:08.912Z,15.80
2017-09-12T03:28:08.877Z,12.60
2017-09-12T03:29:08.845Z,11.30
2017-09-12T03:30:08.815Z,11.90
2017-09-12T03:31:08.782Z,20.20
2017-09-12T03:32:08.749Z,15.90
2017-09-12T03:33:08.717Z,14.90
2017-09-12T03:34:08.686Z,16.60
2017-09-12T03:35:08.663Z,17.10
2017-09-12T03:36:08.620Z,13.80
2017-09-12T03:37:08.590Z,15.60
2017-09-12T03:38:08.559Z,14.00
2017-09-12T03:39:08.525Z,11.60
2017-09-12T03:40:08.498Z,10.20
2017-09-12T03:41:08.804Z,13.60
2017-09-12T03:42:08.427Z,13.40
2017-09-12T03:43:08.399Z,16.00
2017-09-12T03:44:08.364Z,12.40
2017-09-12T03:45:08.333Z,14.50
2017-09-12T03:46:08.301Z,16.50
2017-09-12T03:47:08.269Z,13.20
2017-09-12T03:48:08.236Z,12.40
2017-09-12T03:49:08.204Z,16.60
2017-09-12T03:50:08.173Z,18.50
2017-09-12T03:51:08.141Z,9.30
2017-09-12T03:52:08.110Z,11.80
2017-09-12T03:53:08.076Z,14.50
2017-09-12T03:54:08.044Z,9.70
2017-09-12T03:55:08.015Z,11.20
2017-09-12T03:56:07.980Z,14.00
2017-09-12T03:57:07.951Z,13.40
2017-09-12T03:58:07.917Z,14.30
2017-09-12T03:59:07.886Z,14.60
2017-09-12T04:00:07.867Z,11.30
2017-09-12T04:01:07.821Z,10.30
2017-09-12T04:02:07.787Z,13.00
2017-09-12T04:03:07.758Z,12.70
2017-09-12T04:04:07.724Z,11.80
2017-09-12T04:05:07.692Z,15.20
2017-09-12T04:06:07.661Z,14.90
2017-09-12T04:07:07.868Z,14.00
2017-09-12T04:08:07.597Z,13.20
2017-09-12T04:09:07.562Z,12.30
2017-09-12T04:10:07.554Z,10.80
2017-09-12T04:11:07.500Z,11.20
2017-09-12T04:12:07.934Z,12.70
2017-09-12T04:13:07.437Z,13.90
2017-09-12T04:14:07.404Z,9.50
2017-09-12T04:15:07.377Z,15.80
2017-09-12T04:16:07.346Z,19.50
2017-09-12T04:17:07.309Z,11.70
2017-09-12T04:18:07.278Z,8.90
2017-09-12T04:19:07.245Z,9.60
2017-09-12T04:20:07.206Z,12.30
2017-09-12T04:21:07.181Z,10.70
2017-09-12T04:22:07.148Z,7.40
2017-09-12T04:23:07.118Z,11.30
2017-09-12T04:24:07.554Z,15.90
2017-09-12T04:25:07.055Z,10.20
2017-09-12T04:26:07.021Z,10.50
2017-09-12T04:27:06.991Z,10.80
2017-09-12T04:28:07.032Z,11.80
2017-09-12T04:29:06.927Z,5.00
2017-09-12T04:30:06.895Z,9.20
2017-09-12T04:31:06.879Z,9.20
2017-09-12T04:32:06.834Z,11.70
2017-09-12T04:33:06.799Z,12.30
2017-09-12T04:34:06.767Z,10.60
2017-09-12T04:35:06.735Z,8.30
2017-09-12T04:36:06.702Z,11.30
2017-09-12T04:37:06.671Z,7.00
2017-09-12T04:38:06.640Z,6.00
2017-09-12T04:39:06.610Z,11.50
2017-09-12T04:40:06.576Z,8.90
2017-09-12T04:41:06.544Z,10.20
2017-09-12T04:42:06.514Z,7.30
2017-09-12T04:43:06.482Z,8.70
2017-09-12T04:44:06.450Z,10.10
2017-09-12T04:45:06.417Z,8.40
2017-09-12T04:46:06.388Z,6.40
2017-09-12T04:47:06.355Z,8.80
2017-09-12T04:48:06.321Z,10.90
2017-09-12T04:49:06.292Z,10.90
2017-09-12T04:50:06.258Z,15.70
2017-09-12T04:51:06.226Z,19.50
2017-09-12T04:52:06.194Z,21.60
2017-09-12T04:53:06.164Z,10.90
2017-09-12T04:54:06.137Z,17.10
2017-09-12T04:55:06.101Z,15.40
2017-09-12T04:56:06.069Z,20.10
2017-09-12T04:57:06.035Z,18.30
2017-09-12T04:58:06.005Z,11.60
2017-09-12T04:59:05.972Z,15.40
2017-09-12T05:00:05.940Z,17.30
2017-09-12T05:01:05.910Z,33.00
2017-09-12T05:02:05.876Z,31.20
2017-09-12T05:03:05.844Z,28.50
2017-09-12T05:04:05.814Z,56.20
2017-09-12T05:05:05.782Z,39.80
2017-09-12T05:06:05.749Z,24.40
2017-09-12T05:07:05.717Z,72.90
2017-09-12T05:08:05.684Z,59.60
2017-09-12T05:09:05.653Z,56.90
2017-09-12T05:10:05.620Z,38.80
2017-09-12T05:11:05.589Z,40.10
2017-09-12T05:12:05.557Z,31.10
2017-09-12T05:13:05.524Z,55.70
2017-09-12T05:14:05.493Z,36.90
2017-09-12T05:15:05.463Z,23.60
2017-09-12T05:16:05.431Z,40.90
2017-09-12T05:17:05.396Z,28.80
2017-09-12T05:18:05.366Z,17.10
2017-09-12T05:19:05.335Z,33.60
2017-09-12T05:20:05.638Z,18.00
2017-09-12T05:21:05.270Z,22.60
2017-09-12T05:22:05.237Z,18.40
2017-09-12T05:23:05.206Z,16.20
2017-09-12T05:24:05.397Z,14.30
2017-09-12T05:25:05.143Z,23.20
2017-09-12T05:26:05.110Z,13.00
2017-09-12T05:27:05.078Z,23.90
2017-09-12T05:28:05.047Z,22.10
2017-09-12T05:29:05.014Z,17.60
2017-09-12T05:30:04.982Z,21.80
2017-09-12T05:31:04.951Z,23.80
2017-09-12T05:32:04.918Z,20.80
2017-09-12T05:33:04.887Z,24.50
2017-09-12T05:34:04.868Z,18.80
2017-09-12T05:35:04.823Z,23.50
2017-09-12T05:36:04.787Z,30.50
2017-09-12T05:37:04.760Z,25.60
2017-09-12T05:38:04.725Z,16.60
2017-09-12T05:39:04.693Z,18.60
2017-09-12T05:40:04.661Z,21.50
2017-09-12T05:41:04.628Z,18.40
2017-09-12T05:42:04.597Z,20.60
2017-09-12T05:43:04.588Z,37.30
2017-09-12T05:44:04.532Z,45.70
2017-09-12T05:45:04.500Z,79.80
2017-09-12T05:46:04.470Z,24.20
2017-09-12T05:47:04.437Z,69.70
2017-09-12T05:48:04.405Z,42.50
2017-09-12T05:49:04.374Z,34.70
2017-09-12T05:50:04.341Z,60.20
2017-09-12T05:51:04.308Z,33.70
2017-09-12T05:52:04.277Z,33.70
2017-09-12T05:53:04.244Z,35.60
2017-09-12T05:54:04.213Z,41.70
2017-09-12T05:55:04.181Z,58.90
2017-09-12T05:56:04.151Z,31.80
2017-09-12T05:57:04.117Z,23.60
2017-09-12T05:58:04.085Z,47.80
2017-09-12T05:59:04.056Z,55.80
2017-09-12T06:00:04.025Z,49.00
2017-09-12T06:01:03.992Z,59.60
2017-09-12T06:02:03.961Z,41.80
2017-09-12T06:03:03.930Z,63.10
2017-09-12T06:04:03.897Z,39.10
2017-09-12T06:05:03.865Z,37.50
2017-09-12T06:06:04.184Z,38.30
2017-09-12T06:07:03.804Z,39.80
2017-09-12T06:08:03.770Z,51.20
2017-09-12T06:09:03.741Z,35.50
2017-09-12T06:10:03.710Z,43.80
2017-09-12T06:11:03.681Z,30.20
2017-09-12T06:12:03.649Z,40.70
2017-09-12T06:13:03.618Z,25.50
2017-09-12T06:14:03.588Z,27.40
2017-09-12T06:15:03.556Z,56.30
2017-09-12T06:16:03.526Z,39.00
2017-09-12T06:17:03.497Z,33.60
2017-09-12T06:18:03.466Z,47.50
2017-09-12T06:19:03.434Z,31.30
2017-09-12T06:20:03.405Z,43.70
2017-09-12T06:21:03.373Z,21.20
2017-09-12T06:22:03.346Z,23.30
2017-09-12T06:23:03.316Z,16.20
2017-09-12T06:24:03.284Z,23.10
2017-09-12T06:25:03.255Z,16.30
2017-09-12T06:26:03.227Z,35.60
2017-09-12T06:27:03.190Z,22.60
2017-09-12T06:28:03.166Z,12.80
2017-09-12T06:29:03.135Z,23.80
2017-09-12T06:30:03.105Z,19.20
2017-09-12T06:31:03.074Z,15.20
2017-09-12T06:32:03.042Z,12.40
2017-09-12T06:33:03.016Z,10.40
2017-09-12T06:34:02.984Z,13.10
2017-09-12T06:35:02.954Z,25.50
2017-09-12T06:36:02.924Z,48.80
2017-09-12T06:37:02.894Z,44.20
2017-09-12T06:38:02.864Z,12.50
2017-09-12T06:39:02.834Z,24.30
2017-09-12T06:40:02.805Z,15.80
2017-09-12T06:41:02.775Z,20.60
2017-09-12T06:42:02.742Z,23.00
2017-09-12T06:43:02.712Z,19.10
2017-09-12T06:44:02.958Z,23.90
2017-09-12T06:45:02.650Z,19.60
2017-09-12T06:46:02.621Z,69.50
2017-09-12T06:47:02.590Z,23.60
2017-09-12T06:48:02.967Z,15.00
2017-09-12T06:49:02.527Z,13.00
2017-09-12T06:50:02.498Z,25.40
2017-09-12T06:51:02.464Z,21.80
2017-09-12T06:52:02.436Z,16.50
2017-09-12T06:53:02.404Z,15.60
2017-09-12T06:54:02.374Z,16.50
2017-09-12T06:55:02.346Z,16.90
2017-09-12T06:56:02.318Z,14.50
2017-09-12T06:57:02.283Z,17.40
2017-09-12T06:58:02.251Z,15.30
2017-09-12T06:59:02.221Z,16.80
2017-09-12T07:00:02.189Z,13.30
2017-09-12T07:01:02.157Z,10.00
2017-09-12T07:02:02.194Z,19.60
2017-09-12T07:03:02.326Z,17.80
2017-09-12T07:04:02.067Z,15.40
2017-09-12T07:05:02.032Z,11.40
2017-09-12T07:06:02.002Z,23.40
2017-09-12T07:07:02.400Z,21.20
2017-09-12T07:08:02.399Z,20.30
2017-09-12T07:09:01.910Z,16.60
2017-09-12T07:10:01.884Z,19.00
2017-09-12T07:11:01.846Z,19.50
2017-09-12T07:12:01.815Z,18.20
2017-09-12T07:13:01.784Z,18.70
2017-09-12T07:14:01.753Z,14.40
2017-09-12T07:15:01.722Z,15.00
2017-09-12T07:16:01.693Z,19.80
2017-09-12T07:17:01.655Z,18.50
2017-09-12T07:18:01.629Z,12.50
2017-09-12T07:19:01.596Z,16.70
2017-09-12T07:20:01.565Z,22.80
2017-09-12T07:21:01.532Z,19.50
2017-09-12T07:22:01.503Z,19.20
2017-09-12T07:23:01.470Z,16.80
2017-09-12T07:24:01.452Z,15.70
2017-09-12T07:25:01.406Z,14.60
2017-09-12T07:26:01.376Z,17.10
2017-09-12T07:27:01.348Z,20.20
2017-09-12T07:28:01.314Z,21.00
2017-09-12T07:29:01.283Z,17.60
2017-09-12T07:30:01.251Z,15.40
2017-09-12T07:31:01.222Z,13.00
2017-09-12T07:32:01.189Z,19.20
2017-09-12T07:33:01.158Z,22.50
2017-09-12T07:34:01.127Z,21.70
2017-09-12T07:35:01.095Z,22.60
2017-09-12T07:36:01.065Z,20.10
2017-09-12T07:37:01.033Z,21.20
2017-09-12T07:38:01.003Z,18.50
2017-09-12T07:39:00.970Z,20.50
2017-09-12T07:40:00.939Z,18.10
2017-09-12T07:41:00.909Z,14.90
2017-09-12T07:42:00.882Z,16.40
2017-09-12T07:43:00.849Z,15.80
2017-09-12T07:44:00.820Z,19.70
2017-09-12T07:45:00.785Z,26.70
2017-09-12T07:46:00.754Z,16.80
2017-09-12T07:47:00.722Z,15.40
2017-09-12T07:48:00.691Z,18.60
2017-09-12T07:49:00.659Z,18.60
2017-09-12T07:50:00.629Z,15.60
2017-09-12T07:51:00.598Z,21.90
2017-09-12T07:52:00.566Z,22.20
2017-09-12T07:53:00.536Z,18.30
2017-09-12T07:54:00.515Z,20.20
2017-09-12T07:55:00.474Z,18.40
2017-09-12T07:56:00.443Z,15.70
2017-09-12T07:57:00.412Z,16.30
2017-09-12T07:58:00.380Z,19.20
2017-09-12T07:59:00.351Z,18.40
2017-09-12T08:00:00.319Z,20.80
2017-09-12T08:01:00.288Z,15.60
2017-09-12T08:02:00.257Z,15.70
2017-09-12T08:03:00.226Z,15.60
2017-09-12T08:04:00.199Z,20.60
2017-09-12T08:05:00.168Z,19.60
2017-09-12T08:06:00.138Z,18.30
2017-09-12T08:07:00.109Z,13.10
2017-09-12T08:08:00.079Z,17.90
2017-09-12T08:09:00.049Z,17.70
2017-09-12T08:10:00.020Z,13.00
2017-09-12T08:10:59.991Z,12.20
2017-09-12T08:11:59.958Z,13.50
2017-09-12T08:12:59.932Z,16.00
2017-09-12T08:13:59.904Z,14.20
2017-09-12T08:14:59.877Z,12.40
2017-09-12T08:15:59.847Z,19.50
2017-09-12T08:16:59.819Z,11.80
2017-09-12T08:17:59.791Z,16.20
2017-09-12T08:18:59.763Z,13.80
2017-09-12T08:19:59.733Z,13.50
2017-09-12T08:20:59.704Z,17.30
2017-09-12T08:21:59.677Z,12.10
2017-09-12T08:22:59.650Z,13.30
2017-09-12T08:23:59.621Z,15.60
2017-09-12T08:24:59.592Z,13.60
2017-09-12T08:25:59.563Z,15.30
2017-09-12T08:26:59.536Z,14.50
2017-09-12T08:27:59.508Z,13.60
2017-09-12T08:28:59.478Z,15.50
2017-09-12T08:29:59.460Z,13.40
2017-09-12T08:30:59.420Z,11.10
2017-09-12T08:31:59.389Z,20.30
2017-09-12T08:32:59.361Z,13.60
2017-09-12T08:33:59.336Z,13.40
2017-09-12T08:34:59.304Z,13.00
2017-09-12T08:35:59.273Z,15.00
2017-09-12T08:36:59.243Z,15.30
2017-09-12T08:37:59.215Z,16.80
2017-09-12T08:38:59.188Z,15.80
2017-09-12T08:39:59.157Z,11.20
2017-09-12T08:40:59.129Z,11.30
2017-09-12T08:41:59.107Z,16.10
2017-09-12T08:42:59.073Z,12.30
2017-09-12T08:43:59.044Z,17.20
2017-09-12T08:44:59.017Z,15.90
2017-09-12T08:45:58.992Z,11.10
2017-09-12T08:46:58.959Z,14.50
2017-09-12T08:47:58.933Z,14.10
2017-09-12T08:48:58.900Z,13.60
2017-09-12T08:49:58.873Z,18.00
2017-09-12T08:50:58.847Z,14.90
2017-09-12T08:51:58.815Z,15.90
2017-09-12T08:52:58.786Z,15.70
2017-09-12T08:53:58.757Z,15.60
2017-09-12T08:54:58.734Z,12.70
2017-09-12T08:55:58.704Z,13.60
2017-09-12T08:56:58.673Z,13.00
2017-09-12T08:57:58.653Z,14.20
2017-09-12T08:58:58.618Z,12.20
2017-09-12T08:59:58.590Z,15.00
2017-09-12T09:00:58.569Z,14.60
2017-09-12T09:01:58.533Z,10.30
2017-09-12T09:02:58.505Z,12.40
2017-09-12T09:03:58.475Z,11.90
2017-09-12T09:04:58.447Z,14.40
2017-09-12T09:05:58.419Z,14.80
2017-09-12T09:06:58.388Z,15.30
2017-09-12T09:07:58.361Z,9.70
2017-09-12T09:08:58.336Z,16.40
2017-09-12T09:09:58.304Z,13.50
2017-09-12T09:10:58.276Z,10.40
2017-09-12T09:11:58.248Z,13.50
2017-09-12T09:12:58.220Z,13.40
2017-09-12T09:13:58.192Z,12.40
2017-09-12T09:14:58.163Z,14.70
2017-09-12T09:15:58.134Z,17.00
2017-09-12T09:16:58.103Z,11.50
2017-09-12T09:17:58.077Z,12.60
2017-09-12T09:18:58.048Z,10.30
2017-09-12T09:19:58.019Z,12.70
2017-09-12T09:20:57.992Z,15.40
2017-09-12T09:21:57.961Z,16.40
2017-09-12T09:22:57.933Z,11.60
2017-09-12T09:23:57.905Z,13.40
2017-09-12T09:24:57.878Z,12.40
2017-09-12T09:25:57.852Z,11.10
2017-09-12T09:26:57.824Z,11.10
2017-09-12T09:27:57.796Z,12.90
2017-09-12T09:28:57.771Z,12.10
2017-09-12T09:29:57.746Z,17.70
2017-09-12T09:30:57.723Z,15.50
2017-09-12T09:31:57.697Z,15.10
2017-09-12T09:32:57.674Z,16.50
2017-09-12T09:33:57.651Z,15.80
2017-09-12T09:34:57.628Z,26.80
2017-09-12T09:35:58.131Z,18.10
2017-09-12T09:36:57.584Z,17.20
2017-09-12T09:37:57.560Z,14.30
2017-09-12T09:38:57.538Z,16.80
2017-09-12T09:39:57.515Z,16.70
2017-09-12T09:40:57.494Z,23.50
2017-09-12T09:41:57.470Z,17.70
2017-09-12T09:42:57.447Z,14.20
2017-09-12T09:43:57.427Z,13.00
2017-09-12T09:44:57.402Z,15.50
2017-09-12T09:45:57.438Z,20.60
2017-09-12T09:46:57.360Z,16.10
2017-09-12T09:47:57.338Z,18.90
2017-09-12T09:48:57.318Z,16.10
2017-09-12T09:49:57.297Z,14.60
2017-09-12T09:50:57.276Z,12.10
2017-09-12T09:51:57.255Z,16.50
2017-09-12T09:52:57.236Z,15.10
2017-09-12T09:53:57.217Z,23.10
2017-09-12T09:54:57.196Z,15.40
2017-09-12T09:55:57.181Z,16.50
2017-09-12T09:56:57.158Z,15.30
2017-09-12T09:57:57.136Z,18.60
2017-09-12T09:58:57.119Z,12.20
2017-09-12T09:59:57.096Z,15.20
2017-09-12T10:00:57.078Z,11.40
2017-09-12T10:01:57.058Z,13.50
2017-09-12T10:02:57.039Z,11.50
2017-09-12T10:03:57.021Z,14.20
2017-09-12T10:04:57.000Z,12.90
2017-09-12T10:05:56.981Z,11.80
2017-09-12T10:06:56.963Z,13.00
2017-09-12T10:07:56.937Z,17.00
2017-09-12T10:08:56.917Z,16.10
2017-09-12T10:09:56.899Z,11.70
2017-09-12T10:10:56.878Z,19.10
2017-09-12T10:11:56.892Z,15.20
2017-09-12T10:12:56.830Z,13.00
2017-09-12T10:13:56.808Z,13.20
2017-09-12T10:14:56.783Z,11.50
2017-09-12T10:15:56.763Z,11.90
2017-09-12T10:16:56.741Z,10.20
2017-09-12T10:17:56.719Z,10.80
2017-09-12T10:18:56.698Z,12.90
2017-09-12T10:19:56.675Z,16.50
2017-09-12T10:20:56.663Z,20.40
2017-09-12T10:21:56.634Z,16.10
2017-09-12T10:22:56.622Z,18.50
2017-09-12T10:23:56.588Z,17.70
2017-09-12T10:24:56.564Z,15.70
2017-09-12T10:25:56.543Z,18.00
2017-09-12T10:26:56.520Z,14.40
2017-09-12T10:27:56.498Z,8.50
2017-09-12T10:28:56.472Z,18.40
2017-09-12T10:29:56.450Z,14.40
2017-09-12T10:30:56.428Z,13.30
2017-09-12T10:31:56.404Z,15.10
2017-09-12T10:32:56.376Z,13.50
2017-09-12T10:33:56.730Z,16.10
2017-09-12T10:34:56.333Z,14.30
2017-09-12T10:35:56.308Z,14.30
2017-09-12T10:36:56.286Z,18.00
2017-09-12T10:37:56.735Z,14.80
2017-09-12T10:38:56.241Z,16.30
2017-09-12T10:39:56.222Z,12.70
2017-09-12T10:40:56.199Z,10.60
2017-09-12T10:41:56.177Z,15.80
2017-09-12T10:42:56.154Z,12.70
2017-09-12T10:43:56.132Z,15.80
2017-09-12T10:44:56.109Z,14.70
2017-09-12T10:45:56.086Z,10.50
2017-09-12T10:46:56.062Z,10.50
2017-09-12T10:47:56.037Z,11.10
2017-09-12T10:48:56.015Z,15.00
2017-09-12T10:49:55.988Z,13.00
2017-09-12T10:50:55.969Z,16.30
2017-09-12T10:51:55.942Z,12.00
2017-09-12T10:52:55.917Z,13.30
2017-09-12T10:53:55.893Z,10.60
2017-09-12T10:54:55.869Z,16.80
2017-09-12T10:55:55.846Z,19.00
2017-09-12T10:56:55.822Z,16.70
2017-09-12T10:57:55.796Z,13.60
2017-09-12T10:58:55.772Z,12.50
2017-09-12T10:59:55.747Z,15.90
2017-09-12T11:00:55.727Z,18.00
2017-09-12T11:01:55.697Z,24.90
2017-09-12T11:02:55.671Z,15.60
2017-09-12T11:03:55.643Z,18.80
2017-09-12T11:04:56.359Z,20.30
2017-09-12T11:05:55.593Z,22.70
2017-09-12T11:06:55.569Z,14.00
2017-09-12T11:07:55.541Z,17.90
2017-09-12T11:08:55.516Z,12.60
2017-09-12T11:09:55.493Z,16.70
2017-09-12T11:10:55.466Z,18.50
2017-09-12T11:11:55.441Z,14.00
2017-09-12T11:12:55.417Z,15.70
2017-09-12T11:13:55.395Z,18.30
2017-09-12T11:14:55.368Z,12.50
2017-09-12T11:15:55.358Z,16.90
2017-09-12T11:16:55.324Z,24.60
2017-09-12T11:17:55.301Z,13.20
2017-09-12T11:18:55.278Z,22.10
2017-09-12T11:19:55.257Z,23.00
2017-09-12T11:20:55.232Z,12.10
2017-09-12T11:21:55.209Z,15.30
2017-09-12T11:22:55.186Z,25.80
2017-09-12T11:23:55.165Z,19.50
2017-09-12T11:24:55.137Z,21.10
2017-09-12T11:25:55.114Z,24.00
2017-09-12T11:26:55.092Z,19.90
2017-09-12T11:27:55.067Z,15.60
2017-09-12T11:28:55.811Z,16.20
2017-09-12T11:29:55.024Z,15.60
2017-09-12T11:30:55.000Z,13.20
2017-09-12T11:31:54.977Z,14.70
2017-09-12T11:32:54.958Z,16.00
2017-09-12T11:33:54.941Z,17.90
2017-09-12T11:34:54.910Z,20.90
2017-09-12T11:35:54.891Z,18.80
2017-09-12T11:36:54.868Z,19.80
2017-09-12T11:37:54.850Z,19.10
2017-09-12T11:38:54.828Z,18.60
2017-09-12T11:39:54.807Z,21.50
2017-09-12T11:40:54.786Z,15.30
2017-09-12T11:41:54.767Z,14.50
2017-09-12T11:42:54.749Z,18.00
2017-09-12T11:43:54.729Z,18.40
2017-09-12T11:44:54.800Z,11.90
2017-09-12T11:45:54.692Z,10.20
2017-09-12T11:46:54.673Z,8.50
2017-09-12T11:47:54.653Z,9.70
2017-09-12T11:48:55.399Z,6.60
2017-09-12T11:49:54.619Z,7.50
2017-09-12T11:50:54.603Z,8.40
2017-09-12T11:51:54.581Z,5.60
2017-09-12T11:52:54.564Z,6.50
2017-09-12T11:53:54.546Z,8.00
2017-09-12T11:54:54.533Z,5.20
2017-09-12T11:55:54.510Z,10.50
2017-09-12T11:56:54.494Z,7.20
2017-09-12T11:57:54.475Z,9.70
2017-09-12T11:58:54.456Z,9.00
2017-09-12T11:59:54.436Z,12.50
2017-09-12T12:00:54.423Z,5.90
2017-09-12T12:01:54.403Z,6.70
2017-09-12T12:02:54.384Z,11.80
2017-09-12T12:03:54.367Z,8.40
2017-09-12T12:04:54.350Z,9.70
2017-09-12T12:05:54.329Z,10.90
2017-09-12T12:06:54.316Z,10.30
2017-09-12T12:07:54.297Z,8.20
2017-09-12T12:08:54.277Z,9.50
2017-09-12T12:09:54.257Z,7.30
2017-09-12T12:10:54.237Z,10.40
2017-09-12T12:11:54.212Z,15.20
2017-09-12T12:12:54.238Z,11.50
2017-09-12T12:13:54.178Z,10.50
2017-09-12T12:14:54.159Z,9.30
2017-09-12T12:15:54.135Z,12.30
2017-09-12T12:16:54.116Z,10.20
2017-09-12T12:17:54.095Z,11.10
2017-09-12T12:18:54.074Z,8.10
2017-09-12T12:19:54.051Z,12.10
2017-09-12T12:20:54.029Z,9.10
2017-09-12T12:21:54.008Z,10.70
2017-09-12T12:22:53.988Z,6.60
2017-09-12T12:23:53.964Z,7.90
2017-09-12T12:24:53.940Z,9.50
2017-09-12T12:25:53.926Z,15.90
2017-09-12T12:26:53.896Z,9.30
2017-09-12T12:27:53.873Z,8.70
2017-09-12T12:28:53.849Z,8.30
2017-09-12T12:29:53.828Z,8.40
2017-09-12T12:30:53.805Z,5.20
2017-09-12T12:31:53.781Z,7.90
2017-09-12T12:32:53.758Z,7.60
2017-09-12T12:33:53.736Z,7.30
2017-09-12T12:34:53.715Z,6.70
2017-09-12T12:35:53.692Z,6.40
2017-09-12T12:36:53.671Z,7.20
2017-09-12T12:37:53.650Z,5.50
2017-09-12T12:38:53.902Z,6.60
2017-09-12T12:39:53.613Z,6.60
2017-09-12T12:40:53.594Z,8.80
2017-09-12T12:41:53.572Z,6.80
2017-09-12T12:42:53.551Z,8.10
2017-09-12T12:43:53.535Z,5.10
2017-09-12T12:44:53.513Z,10.70
2017-09-12T12:45:53.495Z,4.30
2017-09-12T12:46:53.475Z,5.70
2017-09-12T12:47:53.454Z,6.30
2017-09-12T12:48:53.536Z,6.60
2017-09-12T12:49:53.417Z,9.50
2017-09-12T12:50:53.397Z,8.60
2017-09-12T12:51:53.378Z,10.70
2017-09-12T12:52:53.360Z,5.50
2017-09-12T12:53:53.339Z,6.70
2017-09-12T12:54:53.320Z,7.30
2017-09-12T12:55:53.299Z,7.40